createdAt,value
2022-12-29T00:00:25.792Z,4.53
2022-12-29T00:03:14.566Z,4.57
2022-12-29T00:05:43.092Z,5.28
2022-12-29T00:08:11.683Z,4.72
2022-12-29T00:10:39.981Z,4.43
2022-12-29T00:13:27.193Z,5.25
2022-12-29T00:15:56.320Z,5.10
2022-12-29T00:18:25.019Z,5.70
2022-12-29T00:21:14.704Z,5.80
2022-12-29T00:24:00.538Z,6.88
2022-12-29T00:26:45.512Z,5.70
2022-12-29T00:29:33.251Z,5.55
2022-12-29T00:32:19.902Z,5.97
2022-12-29T00:35:06.376Z,6.38
2022-12-29T00:37:48.673Z,5.47
2022-12-29T00:40:31.233Z,5.72
2022-12-29T00:43:17.416Z,5.90
2022-12-29T00:45:48.020Z,5.82
2022-12-29T00:48:16.562Z,6.00
2022-12-29T00:50:44.364Z,6.60
2022-12-29T00:53:13.016Z,6.18
2022-12-29T00:55:42.252Z,7.78
2022-12-29T00:58:10.664Z,8.23
2022-12-29T01:00:39.270Z,7.78
2022-12-29T01:03:09.115Z,8.00
2022-12-29T01:05:38.841Z,7.63
2022-12-29T01:08:07.372Z,7.75
2022-12-29T01:10:35.061Z,8.88
2022-12-29T01:13:03.270Z,8.82
2022-12-29T01:15:31.721Z,8.40
2022-12-29T01:17:59.956Z,8.43
2022-12-29T01:20:29.882Z,8.57
2022-12-29T01:22:58.253Z,8.95
2022-12-29T01:25:26.848Z,8.00
2022-12-29T01:27:55.189Z,8.23
2022-12-29T01:30:23.802Z,8.50
2022-12-29T01:32:52.079Z,7.65
2022-12-29T01:35:20.808Z,8.73
2022-12-29T01:37:50.532Z,7.32
2022-12-29T01:40:19.461Z,7.45
2022-12-29T01:42:48.182Z,7.28
2022-12-29T01:45:17.485Z,6.75
2022-12-29T01:47:49.052Z,6.03
2022-12-29T01:52:56.761Z,7.65
2022-12-29T01:55:25.915Z,8.23
2022-12-29T01:57:55.869Z,8.45
2022-12-29T02:00:24.594Z,8.48
2022-12-29T02:02:54.478Z,7.80
2022-12-29T02:05:42.524Z,8.57
2022-12-29T02:08:12.537Z,7.55
2022-12-29T02:10:41.597Z,6.40
2022-12-29T02:13:10.052Z,6.82
2022-12-29T02:15:55.023Z,7.60
2022-12-29T02:18:38.098Z,7.38
2022-12-29T02:21:49.441Z,7.07
2022-12-29T02:25:09.274Z,7.03
2022-12-29T02:27:51.336Z,6.68
2022-12-29T02:30:43.888Z,7.07
2022-12-29T02:33:23.442Z,6.65
2022-12-29T02:35:56.919Z,6.50
2022-12-29T02:38:36.077Z,6.00
2022-12-29T02:41:09.565Z,6.00
2022-12-29T02:43:41.441Z,6.75
2022-12-29T02:46:19.623Z,5.95
2022-12-29T02:48:53.939Z,5.88
2022-12-29T02:51:26.210Z,6.00
2022-12-29T02:54:12.748Z,5.40
2022-12-29T02:56:43.321Z,5.88
2022-12-29T02:59:12.715Z,5.30
2022-12-29T03:02:10.025Z,4.60
2022-12-29T03:04:43.102Z,4.95
2022-12-29T03:07:16.959Z,4.35
2022-12-29T03:09:51.967Z,5.07
2022-12-29T03:12:41.300Z,5.70
2022-12-29T03:15:30.995Z,4.75
2022-12-29T03:18:06.509Z,4.68
2022-12-29T03:20:40.654Z,4.50
2022-12-29T03:23:09.301Z,4.93
2022-12-29T03:25:39.880Z,5.13
2022-12-29T03:28:10.945Z,4.53
2022-12-29T03:33:11.827Z,5.25
2022-12-29T03:35:43.109Z,5.30
2022-12-29T03:38:17.157Z,4.75
2022-12-29T03:40:49.918Z,5.00
2022-12-29T03:43:18.597Z,4.32
2022-12-29T03:45:47.251Z,4.00
2022-12-29T03:48:16.996Z,4.32
2022-12-29T03:50:45.668Z,4.05
2022-12-29T03:53:14.030Z,4.85
2022-12-29T03:55:43.494Z,4.15
2022-12-29T03:58:11.810Z,4.60
2022-12-29T04:00:41.737Z,4.72
2022-12-29T04:03:10.081Z,5.03
2022-12-29T04:05:40.148Z,4.60
2022-12-29T04:08:08.501Z,4.93
2022-12-29T04:10:37.135Z,4.80
2022-12-29T04:13:05.342Z,5.15
2022-12-29T04:15:33.984Z,4.80
2022-12-29T04:18:02.436Z,5.18
2022-12-29T04:20:48.244Z,5.43
2022-12-29T04:23:18.752Z,5.78
2022-12-29T04:25:48.412Z,5.82
2022-12-29T04:28:16.882Z,5.82
2022-12-29T04:30:48.415Z,5.50
2022-12-29T04:33:16.798Z,5.80
2022-12-29T04:35:47.934Z,5.90
2022-12-29T04:38:16.523Z,6.72
2022-12-29T04:40:47.250Z,7.25
2022-12-29T04:43:15.876Z,7.40
2022-12-29T04:45:45.810Z,7.28
2022-12-29T04:48:14.619Z,7.05
2022-12-29T04:50:43.405Z,6.18
2022-12-29T04:53:11.911Z,7.20
2022-12-29T04:55:40.588Z,6.93
2022-12-29T04:58:10.262Z,6.72
2022-12-29T05:00:38.827Z,6.88
2022-12-29T05:03:07.340Z,6.05
2022-12-29T05:05:36.295Z,5.53
2022-12-29T05:08:04.521Z,6.57
2022-12-29T05:10:33.107Z,5.97
2022-12-29T05:13:01.935Z,6.22
2022-12-29T05:15:32.230Z,5.72
2022-12-29T05:18:00.615Z,5.13
2022-12-29T05:20:29.127Z,5.28
2022-12-29T05:22:57.490Z,5.10
2022-12-29T05:25:26.107Z,5.53
2022-12-29T05:27:54.528Z,4.70
2022-12-29T05:30:23.197Z,4.80
2022-12-29T05:32:52.908Z,5.30
2022-12-29T05:35:21.423Z,5.40
2022-12-29T05:37:49.704Z,5.20
2022-12-29T05:40:18.899Z,5.32
2022-12-29T05:42:47.459Z,5.10
2022-12-29T05:45:16.153Z,5.15
2022-12-29T05:47:44.577Z,5.35
2022-12-29T05:50:14.546Z,5.40
2022-12-29T05:52:42.995Z,5.20
2022-12-29T05:55:12.138Z,5.85
2022-12-29T05:57:40.577Z,5.10
2022-12-29T06:00:10.757Z,6.53
2022-12-29T06:02:39.189Z,4.85
2022-12-29T06:05:08.295Z,5.38
2022-12-29T06:07:38.110Z,5.07
2022-12-29T06:10:07.640Z,4.43
2022-12-29T06:12:35.851Z,4.40
2022-12-29T06:15:04.710Z,4.95
2022-12-29T06:17:33.091Z,5.05
2022-12-29T06:20:02.243Z,5.18
2022-12-29T06:22:30.840Z,4.75
2022-12-29T06:25:04.889Z,5.45
2022-12-29T06:27:33.936Z,6.10
2022-12-29T06:30:02.751Z,5.53
2022-12-29T06:32:31.285Z,6.00
2022-12-29T06:35:00.375Z,5.10
2022-12-29T06:37:28.810Z,4.85
2022-12-29T06:39:58.142Z,5.75
2022-12-29T06:42:27.893Z,5.82
2022-12-29T06:45:01.775Z,5.82
2022-12-29T06:47:30.454Z,6.55
2022-12-29T06:49:59.206Z,5.97
2022-12-29T06:52:27.596Z,6.18
2022-12-29T06:54:56.531Z,6.15
2022-12-29T06:57:25.176Z,6.43
2022-12-29T06:59:56.670Z,6.88
2022-12-29T07:02:26.485Z,5.88
2022-12-29T07:04:55.701Z,5.43
2022-12-29T07:07:24.074Z,6.32
2022-12-29T07:09:52.828Z,5.97
2022-12-29T07:12:21.221Z,5.22
2022-12-29T07:14:50.127Z,5.32
2022-12-29T07:17:19.891Z,5.35
2022-12-29T07:19:48.515Z,6.85
2022-12-29T07:22:16.751Z,5.63
2022-12-29T07:24:46.140Z,9.40
2022-12-29T07:27:14.510Z,5.80
2022-12-29T07:29:43.516Z,5.75
2022-12-29T07:32:11.887Z,6.05
2022-12-29T07:34:41.925Z,5.88
2022-12-29T07:37:10.409Z,6.15
2022-12-29T07:39:39.046Z,6.30
2022-12-29T07:42:07.432Z,6.03
2022-12-29T07:44:37.689Z,6.75
2022-12-29T07:47:06.176Z,6.15
2022-12-29T07:49:34.776Z,6.32
2022-12-29T07:52:04.517Z,6.85
2022-12-29T07:54:35.104Z,13.50
2022-12-29T07:57:06.942Z,7.72
2022-12-29T07:59:35.747Z,6.18
2022-12-29T08:02:04.205Z,6.53
2022-12-29T08:04:33.070Z,7.20
2022-12-29T08:07:01.957Z,8.15
2022-12-29T08:09:31.949Z,10.05
2022-12-29T08:12:00.426Z,9.15
2022-12-29T08:14:28.940Z,10.02
2022-12-29T08:16:57.377Z,11.30
2022-12-29T08:19:26.514Z,10.05
2022-12-29T08:21:55.984Z,14.20
2022-12-29T08:24:27.008Z,13.45
2022-12-29T08:27:18.180Z,14.60
2022-12-29T08:30:08.130Z,10.13
2022-12-29T08:32:46.934Z,12.95
2022-12-29T08:35:24.701Z,12.18
2022-12-29T08:38:01.613Z,14.57
2022-12-29T08:40:35.113Z,10.15
2022-12-29T08:43:08.818Z,15.82
2022-12-29T08:45:37.846Z,11.95
2022-12-29T08:48:21.344Z,13.10
2022-12-29T08:50:50.877Z,9.88
2022-12-29T08:53:19.999Z,9.73
2022-12-29T08:55:49.763Z,9.93
2022-12-29T08:58:19.763Z,11.40
2022-12-29T09:00:48.449Z,9.27
2022-12-29T09:03:25.864Z,9.98
2022-12-29T09:06:05.937Z,11.60
2022-12-29T09:08:34.548Z,9.50
2022-12-29T09:11:10.668Z,9.80
2022-12-29T09:13:41.138Z,9.05
2022-12-29T09:16:10.204Z,10.70
2022-12-29T09:18:38.900Z,8.90
2022-12-29T09:21:08.448Z,8.77
2022-12-29T09:23:45.157Z,8.95
2022-12-29T09:26:23.010Z,8.98
2022-12-29T09:28:54.790Z,11.20
2022-12-29T09:31:28.451Z,9.35
2022-12-29T09:33:57.379Z,8.75
2022-12-29T09:36:26.026Z,9.07
2022-12-29T09:38:55.895Z,8.90
2022-12-29T09:41:29.005Z,8.25
2022-12-29T09:44:06.266Z,8.35
2022-12-29T09:46:37.123Z,7.95
2022-12-29T09:49:19.970Z,9.30
2022-12-29T09:51:50.676Z,9.43
2022-12-29T09:54:27.186Z,9.00
2022-12-29T09:56:56.619Z,9.10
2022-12-29T09:59:31.757Z,8.20
2022-12-29T10:02:15.295Z,8.15
2022-12-29T10:04:44.539Z,9.10
2022-12-29T10:07:29.508Z,9.48
2022-12-29T10:10:05.747Z,8.15
2022-12-29T10:12:45.360Z,8.50
2022-12-29T10:15:23.488Z,7.90
2022-12-29T10:17:57.098Z,9.25
2022-12-29T10:20:31.695Z,8.43
2022-12-29T10:23:18.607Z,8.32
2022-12-29T10:25:47.318Z,8.70
2022-12-29T10:28:20.954Z,7.60
2022-12-29T10:30:53.969Z,8.15
2022-12-29T10:33:26.559Z,7.82
2022-12-29T10:35:54.950Z,7.75
2022-12-29T10:38:28.926Z,8.18
2022-12-29T10:41:01.163Z,11.93
2022-12-29T10:43:31.252Z,10.10
2022-12-29T10:46:05.294Z,11.98
2022-12-29T10:48:35.635Z,8.52
2022-12-29T10:51:05.638Z,9.05
2022-12-29T10:53:44.679Z,10.68
2022-12-29T10:56:19.230Z,8.23
2022-12-29T10:58:49.824Z,11.40
2022-12-29T11:01:21.574Z,8.33
2022-12-29T11:04:00.386Z,8.68
2022-12-29T11:06:31.237Z,8.70
2022-12-29T11:09:01.887Z,8.27
2022-12-29T11:11:36.536Z,12.88
2022-12-29T11:14:13.891Z,12.07
2022-12-29T11:16:45.841Z,10.77
2022-12-29T11:19:38.997Z,10.40
2022-12-29T11:22:18.769Z,12.85
2022-12-29T11:24:49.159Z,11.90
2022-12-29T11:27:20.785Z,16.55
2022-12-29T11:29:50.931Z,14.48
2022-12-29T11:32:28.383Z,16.70
2022-12-29T11:35:00.297Z,13.75
2022-12-29T11:37:32.262Z,16.17
2022-12-29T11:40:05.414Z,11.25
2022-12-29T11:42:38.124Z,11.57
2022-12-29T11:45:14.113Z,12.55
2022-12-29T11:47:47.235Z,11.52
2022-12-29T11:50:21.388Z,11.80
2022-12-29T11:52:51.118Z,11.18
2022-12-29T11:55:23.292Z,12.85
2022-12-29T11:57:53.213Z,11.40
2022-12-29T12:00:26.389Z,14.43
2022-12-29T12:03:01.722Z,13.60
2022-12-29T12:05:36.537Z,11.75
2022-12-29T12:08:16.166Z,13.00
2022-12-29T12:10:51.560Z,12.27
2022-12-29T12:13:25.235Z,10.63
2022-12-29T12:16:02.647Z,12.90
2022-12-29T12:18:39.430Z,22.35
2022-12-29T12:21:13.470Z,12.85
2022-12-29T12:23:51.312Z,10.38
2022-12-29T12:26:22.665Z,12.15
2022-12-29T12:28:57.229Z,9.95
2022-12-29T12:31:35.749Z,10.18
2022-12-29T12:34:08.689Z,12.10
2022-12-29T12:37:01.610Z,10.23
2022-12-29T12:39:39.209Z,11.18
2022-12-29T12:42:20.676Z,12.10
2022-12-29T12:44:58.126Z,9.70
2022-12-29T12:47:45.791Z,12.27
2022-12-29T12:50:34.123Z,11.23
2022-12-29T12:53:21.450Z,11.15
2022-12-29T12:56:03.537Z,11.32
2022-12-29T12:58:39.636Z,12.50
2022-12-29T13:01:18.211Z,11.77
2022-12-29T13:04:14.661Z,16.45
2022-12-29T13:06:53.702Z,14.77
2022-12-29T13:09:45.677Z,19.00
2022-12-29T13:12:23.152Z,13.45
2022-12-29T13:15:12.622Z,13.05
2022-12-29T13:17:46.379Z,16.88
2022-12-29T13:20:27.493Z,14.52
2022-12-29T13:23:09.011Z,15.48
2022-12-29T13:26:01.199Z,11.43
2022-12-29T13:28:38.065Z,13.38
2022-12-29T13:31:13.046Z,11.95
2022-12-29T13:33:51.529Z,12.00
2022-12-29T13:36:27.306Z,14.52
2022-12-29T13:39:05.260Z,11.60
2022-12-29T13:41:35.833Z,13.73
2022-12-29T13:44:07.533Z,14.35
2022-12-29T13:46:40.879Z,12.77
2022-12-29T13:49:15.720Z,11.07
2022-12-29T13:51:50.917Z,13.73
2022-12-29T13:54:30.154Z,14.90
2022-12-29T13:57:05.426Z,11.05
2022-12-29T13:59:47.709Z,12.52
2022-12-29T14:02:25.723Z,11.75
2022-12-29T14:05:01.212Z,10.68
2022-12-29T14:07:31.671Z,10.07
2022-12-29T14:10:06.802Z,11.23
2022-12-29T14:12:40.266Z,10.55
2022-12-29T14:15:18.051Z,9.60
2022-12-29T14:17:48.291Z,9.52
2022-12-29T14:20:22.744Z,10.03
2022-12-29T14:23:02.638Z,9.95
2022-12-29T14:25:56.950Z,10.05
2022-12-29T14:28:27.587Z,10.35
2022-12-29T14:30:58.303Z,11.77
2022-12-29T14:33:31.282Z,12.80
2022-12-29T14:36:23.879Z,12.30
2022-12-29T14:38:56.538Z,10.73
2022-12-29T14:41:36.528Z,10.35
2022-12-29T14:44:22.519Z,10.25
2022-12-29T14:46:59.548Z,9.25
2022-12-29T14:49:39.197Z,10.45
2022-12-29T14:55:34.736Z,12.23
2022-12-29T15:00:42.651Z,10.68
2022-12-29T15:03:22.737Z,10.77
2022-12-29T15:05:53.926Z,10.13
2022-12-29T15:10:56.281Z,9.85
2022-12-29T15:13:36.431Z,10.23
2022-12-29T15:16:05.857Z,9.82
2022-12-29T15:18:40.497Z,11.02
2022-12-29T15:21:09.393Z,12.50
2022-12-29T15:23:41.378Z,11.13
2022-12-29T15:26:11.504Z,13.88
2022-12-29T15:28:46.796Z,10.88
2022-12-29T15:31:16.838Z,11.10
2022-12-29T15:33:57.861Z,12.30
2022-12-29T15:36:29.234Z,17.75
2022-12-29T15:39:05.496Z,20.33
2022-12-29T15:42:00.237Z,32.08
2022-12-29T15:44:37.588Z,15.68
2022-12-29T15:47:23.171Z,19.67
2022-12-29T15:50:07.340Z,12.85
2022-12-29T15:52:39.863Z,25.38
2022-12-29T15:55:24.786Z,18.10
2022-12-29T15:58:06.663Z,16.25
2022-12-29T16:01:14.286Z,21.40
2022-12-29T16:03:52.877Z,20.35
2022-12-29T16:06:41.939Z,15.13
2022-12-29T16:09:18.989Z,14.07
2022-12-29T16:18:28.851Z,12.63
2022-12-29T16:21:02.685Z,17.77
2022-12-29T16:23:36.830Z,19.23
2022-12-29T16:26:11.128Z,15.38
2022-12-29T16:29:01.365Z,13.05
2022-12-29T16:38:36.893Z,15.48
2022-12-29T16:41:06.454Z,15.90
2022-12-29T16:43:47.790Z,16.60
2022-12-29T16:46:31.571Z,16.77
2022-12-29T16:49:26.199Z,15.70
2022-12-29T16:52:15.915Z,15.95
2022-12-29T16:55:06.416Z,17.85
2022-12-29T16:57:48.223Z,15.65
2022-12-29T17:00:22.703Z,14.27
2022-12-29T17:02:56.293Z,26.73
2022-12-29T17:08:51.991Z,16.40
2022-12-29T17:11:57.814Z,24.85
2022-12-29T17:14:40.640Z,17.88
2022-12-29T17:17:36.693Z,18.95
2022-12-29T17:25:43.674Z,21.73
2022-12-29T17:28:26.168Z,20.67
2022-12-29T17:31:14.237Z,21.00
2022-12-29T17:33:56.154Z,18.13
2022-12-29T17:36:29.144Z,17.45
2022-12-29T17:39:09.375Z,17.95
2022-12-29T17:41:41.959Z,17.58
2022-12-29T17:44:23.016Z,17.70
2022-12-29T17:47:09.018Z,17.73
2022-12-29T17:53:00.673Z,21.60
2022-12-29T17:58:24.090Z,20.58
2022-12-29T18:01:01.563Z,22.77
2022-12-29T18:03:32.981Z,20.92
2022-12-29T18:06:07.180Z,20.52
2022-12-29T18:08:37.253Z,21.05
2022-12-29T18:11:08.123Z,22.30
2022-12-29T18:13:45.921Z,21.75
2022-12-29T18:16:21.520Z,26.10
2022-12-29T18:18:50.703Z,24.05
2022-12-29T18:21:35.920Z,28.17
2022-12-29T18:24:07.943Z,25.48
2022-12-29T18:26:38.559Z,29.30
2022-12-29T18:29:08.505Z,24.40
2022-12-29T18:31:40.374Z,22.73
2022-12-29T18:34:15.457Z,24.25
2022-12-29T18:36:45.943Z,29.60
2022-12-29T18:39:15.187Z,25.20
2022-12-29T18:41:46.187Z,23.52
2022-12-29T18:44:15.683Z,26.83
2022-12-29T18:46:49.563Z,27.35
2022-12-29T18:49:20.433Z,28.33
2022-12-29T18:51:49.602Z,20.60
2022-12-29T18:54:27.254Z,21.33
2022-12-29T18:57:02.254Z,18.80
2022-12-29T18:59:43.364Z,21.80
2022-12-29T19:04:53.185Z,21.20
2022-12-29T19:07:25.414Z,19.13
2022-12-29T19:09:56.414Z,20.20
2022-12-29T19:12:28.477Z,17.92
2022-12-29T19:17:27.220Z,15.13
2022-12-29T19:19:56.092Z,15.27
2022-12-29T19:22:25.076Z,17.77
2022-12-29T19:24:59.647Z,15.63
2022-12-29T19:27:29.176Z,21.42
2022-12-29T19:29:57.934Z,19.00
2022-12-29T19:32:28.437Z,20.75
2022-12-29T19:34:56.850Z,17.08
2022-12-29T19:37:25.781Z,16.77
2022-12-29T19:39:54.528Z,16.40
2022-12-29T19:42:23.557Z,18.95
2022-12-29T19:44:52.004Z,18.65
2022-12-29T19:47:21.166Z,19.65
2022-12-29T19:49:51.647Z,19.83
2022-12-29T19:52:20.627Z,21.30
2022-12-29T19:54:49.391Z,17.20
2022-12-29T19:57:19.076Z,16.25
2022-12-29T19:59:47.795Z,19.58
2022-12-29T20:02:21.641Z,15.32
2022-12-29T20:04:53.964Z,15.68
2022-12-29T20:07:23.931Z,13.88
2022-12-29T20:09:52.744Z,11.63
2022-12-29T20:12:28.838Z,12.13
2022-12-29T20:14:58.203Z,12.45
2022-12-29T20:18:10.360Z,13.77
2022-12-29T20:20:18.100Z,12.77
2022-12-29T20:22:47.304Z,13.02
2022-12-29T20:25:44.285Z,12.45
2022-12-29T20:28:05.220Z,13.10
2022-12-29T20:30:35.161Z,13.07
2022-12-29T20:33:08.402Z,12.15
2022-12-29T20:35:40.207Z,12.43
2022-12-29T20:38:10.045Z,12.18
2022-12-29T20:40:46.235Z,12.32
2022-12-29T20:43:17.925Z,12.73
2022-12-29T20:45:49.425Z,12.70
2022-12-29T20:48:24.139Z,12.80
2022-12-29T20:51:01.023Z,12.65
2022-12-29T20:53:41.925Z,14.13
2022-12-29T20:56:13.801Z,14.02
2022-12-29T20:59:17.139Z,13.98
2022-12-29T21:01:32.694Z,14.18
2022-12-29T21:04:02.117Z,14.68
2022-12-29T21:06:32.481Z,14.27
2022-12-29T21:09:01.788Z,13.35
2022-12-29T21:11:30.744Z,13.23
2022-12-29T21:14:02.965Z,13.23
2022-12-29T21:16:31.752Z,16.75
2022-12-29T21:19:02.211Z,14.73
2022-12-29T21:21:32.191Z,13.95
2022-12-29T21:24:05.762Z,16.23
2022-12-29T21:26:36.028Z,12.80
2022-12-29T21:29:05.997Z,18.63
2022-12-29T21:31:37.579Z,17.50
2022-12-29T21:34:08.259Z,17.10
2022-12-29T21:36:38.329Z,14.53
2022-12-29T21:39:07.526Z,13.68
2022-12-29T21:41:36.120Z,14.45
2022-12-29T21:44:23.322Z,14.55
2022-12-29T21:46:52.274Z,13.27
2022-12-29T21:49:21.880Z,13.32
2022-12-29T21:51:51.686Z,13.43
2022-12-29T21:54:40.717Z,13.10
2022-12-29T21:57:10.581Z,14.15
2022-12-29T21:59:57.546Z,14.70
2022-12-29T22:02:44.630Z,15.23
2022-12-29T22:05:32.150Z,14.40
2022-12-29T22:08:20.970Z,14.50
2022-12-29T22:11:07.718Z,13.80
2022-12-29T22:13:37.770Z,14.40
2022-12-29T22:16:08.631Z,13.77
2022-12-29T22:18:38.483Z,14.50
2022-12-29T22:21:08.745Z,14.20
2022-12-29T22:23:39.703Z,12.98
2022-12-29T22:28:40.473Z,12.52
2022-12-29T22:31:27.352Z,13.93
2022-12-29T22:33:56.871Z,13.07
2022-12-29T22:36:26.629Z,14.52
2022-12-29T22:38:56.548Z,15.00
2022-12-29T22:41:26.584Z,16.13
2022-12-29T22:43:55.223Z,13.38
2022-12-29T22:46:24.701Z,13.75
2022-12-29T22:48:53.497Z,12.25
2022-12-29T22:51:22.518Z,12.13
2022-12-29T22:53:51.251Z,12.25
2022-12-29T22:56:21.634Z,12.25
2022-12-29T22:58:50.374Z,12.68
2022-12-29T23:01:23.144Z,12.15
2022-12-29T23:03:52.192Z,13.43
2022-12-29T23:06:23.300Z,13.15
2022-12-29T23:08:54.307Z,12.43
2022-12-29T23:11:25.371Z,12.77
2022-12-29T23:13:54.017Z,12.98
2022-12-29T23:16:23.581Z,12.45
2022-12-29T23:18:53.632Z,12.10
2022-12-29T23:21:22.861Z,12.23
2022-12-29T23:24:04.324Z,12.20
2022-12-29T23:26:37.519Z,13.30
2022-12-29T23:29:08.673Z,11.35
2022-12-29T23:34:07.465Z,12.00
2022-12-29T23:36:37.160Z,11.80
2022-12-29T23:39:08.791Z,10.85
2022-12-29T23:41:39.817Z,10.90
2022-12-29T23:44:08.767Z,10.77
2022-12-29T23:46:38.047Z,11.23
2022-12-29T23:49:06.709Z,11.30
2022-12-29T23:51:35.850Z,11.38
2022-12-29T23:54:05.358Z,11.23
2022-12-29T23:56:34.419Z,11.57
2022-12-29T23:59:06.341Z,11.50
